createdAt,value
2022-12-12T00:00:17.986Z,15.23
2022-12-12T00:03:07.616Z,14.93
2022-12-12T00:05:37.347Z,14.73
2022-12-12T00:08:07.627Z,14.70
2022-12-12T00:10:37.140Z,14.60
2022-12-12T00:13:06.649Z,14.27
2022-12-12T00:15:36.088Z,14.53
2022-12-12T00:18:05.648Z,14.23
2022-12-12T00:20:35.147Z,14.53
2022-12-12T00:23:04.752Z,14.27
2022-12-12T00:25:34.194Z,13.83
2022-12-12T00:28:03.717Z,15.13
2022-12-12T00:30:33.011Z,15.03
2022-12-12T00:33:02.516Z,14.83
2022-12-12T00:35:31.963Z,15.73
2022-12-12T00:38:01.274Z,14.73
2022-12-12T00:40:30.929Z,14.57
2022-12-12T00:43:00.212Z,14.70
2022-12-12T00:45:29.902Z,15.30
2022-12-12T00:47:59.280Z,14.33
2022-12-12T00:50:28.945Z,15.40
2022-12-12T00:52:58.410Z,14.90
2022-12-12T00:55:28.737Z,14.57
2022-12-12T00:57:58.310Z,14.30
2022-12-12T01:00:28.037Z,14.53
2022-12-12T01:02:58.633Z,14.43
2022-12-12T01:05:29.958Z,14.03
2022-12-12T01:07:59.470Z,15.10
2022-12-12T01:10:29.083Z,14.20
2022-12-12T01:12:58.770Z,14.57
2022-12-12T01:15:28.455Z,15.60
2022-12-12T01:17:57.938Z,15.23
2022-12-12T01:20:28.896Z,14.70
2022-12-12T01:22:58.412Z,15.17
2022-12-12T01:25:27.803Z,16.23
2022-12-12T01:27:57.298Z,15.93
2022-12-12T01:30:27.141Z,14.70
2022-12-12T01:32:56.786Z,16.63
2022-12-12T01:35:26.227Z,15.65
2022-12-12T01:37:55.530Z,15.27
2022-12-12T01:40:27.212Z,14.47
2022-12-12T01:42:56.546Z,15.20
2022-12-12T01:46:20.507Z,14.43
2022-12-12T01:48:54.975Z,14.13
2022-12-12T01:51:28.122Z,14.13
2022-12-12T01:54:03.418Z,14.67
2022-12-12T01:56:34.037Z,14.47
2022-12-12T01:59:05.880Z,13.97
2022-12-12T02:01:36.250Z,14.10
2022-12-12T02:04:07.912Z,14.10
2022-12-12T02:06:38.365Z,15.48
2022-12-12T02:09:12.141Z,14.65
2022-12-12T02:11:46.667Z,14.70
2022-12-12T02:14:19.284Z,12.70
2022-12-12T02:17:04.804Z,14.57
2022-12-12T02:20:11.783Z,14.17
2022-12-12T02:23:08.043Z,14.57
2022-12-12T02:26:09.519Z,13.77
2022-12-12T02:29:09.350Z,13.43
2022-12-12T02:31:46.937Z,13.53
2022-12-12T02:34:25.525Z,15.00
2022-12-12T02:37:04.807Z,13.93
2022-12-12T02:39:42.973Z,14.60
2022-12-12T02:42:25.784Z,13.80
2022-12-12T02:44:59.997Z,14.43
2022-12-12T02:47:32.468Z,15.13
2022-12-12T02:50:08.233Z,16.25
2022-12-12T02:52:37.887Z,13.30
2022-12-12T02:55:08.773Z,14.20
2022-12-12T02:57:41.274Z,14.50
2022-12-12T03:00:16.663Z,14.50
2022-12-12T03:03:26.467Z,14.50
2022-12-12T03:06:41.019Z,13.87
2022-12-12T03:09:21.384Z,14.17
2022-12-12T03:12:04.702Z,14.10
2022-12-12T03:14:53.640Z,14.57
2022-12-12T03:17:32.631Z,15.20
2022-12-12T03:20:09.878Z,15.33
2022-12-12T03:22:45.072Z,14.20
2022-12-12T03:25:19.616Z,14.40
2022-12-12T03:27:57.287Z,14.00
2022-12-12T03:30:30.049Z,13.43
2022-12-12T03:33:04.683Z,14.60
2022-12-12T03:35:37.469Z,14.37
2022-12-12T03:38:16.571Z,16.55
2022-12-12T03:40:49.329Z,19.50
2022-12-12T03:43:23.176Z,23.87
2022-12-12T03:45:59.286Z,23.53
2022-12-12T03:48:31.334Z,23.53
2022-12-12T03:51:04.498Z,19.10
2022-12-12T03:53:39.994Z,15.80
2022-12-12T03:56:17.478Z,15.93
2022-12-12T03:58:51.490Z,15.20
2022-12-12T04:01:26.010Z,15.40
2022-12-12T04:04:00.476Z,14.17
2022-12-12T04:06:35.765Z,14.77
2022-12-12T04:09:26.705Z,14.23
2022-12-12T04:12:22.369Z,14.70
2022-12-12T04:15:19.738Z,15.30
2022-12-12T04:18:02.308Z,17.17
2022-12-12T04:21:02.962Z,17.17
2022-12-12T04:23:45.318Z,16.73
2022-12-12T04:26:36.422Z,15.33
2022-12-12T04:29:22.789Z,14.67
2022-12-12T04:31:58.651Z,15.07
2022-12-12T04:34:36.336Z,14.87
2022-12-12T04:37:09.154Z,17.83
2022-12-12T04:39:42.566Z,21.33
2022-12-12T04:42:17.889Z,18.47
2022-12-12T04:44:49.011Z,17.47
2022-12-12T04:47:20.946Z,18.27
2022-12-12T04:49:52.633Z,17.10
2022-12-12T04:52:25.100Z,16.70
2022-12-12T04:57:32.874Z,16.07
2022-12-12T05:00:02.333Z,14.77
2022-12-12T05:02:40.097Z,17.30
2022-12-12T05:05:16.489Z,18.93
2022-12-12T05:07:53.498Z,17.20
2022-12-12T05:10:23.340Z,20.23
2022-12-12T05:12:59.850Z,19.17
2022-12-12T05:15:29.996Z,18.60
2022-12-12T05:18:03.434Z,16.53
2022-12-12T05:20:33.239Z,17.03
2022-12-12T05:23:02.867Z,16.60
2022-12-12T05:25:32.829Z,16.60
2022-12-12T05:28:02.164Z,16.27
2022-12-12T05:30:31.703Z,15.73
2022-12-12T05:33:01.199Z,16.53
2022-12-12T05:35:30.649Z,15.63
2022-12-12T05:38:00.977Z,16.27
2022-12-12T05:40:30.546Z,16.07
2022-12-12T05:43:00.541Z,15.80
2022-12-12T05:45:29.945Z,17.43
2022-12-12T05:48:00.080Z,19.93
2022-12-12T05:50:29.357Z,19.83
2022-12-12T05:52:58.841Z,17.67
2022-12-12T05:55:28.187Z,18.17
2022-12-12T05:57:57.625Z,18.93
2022-12-12T06:00:27.041Z,18.60
2022-12-12T06:02:56.592Z,19.00
2022-12-12T06:05:26.221Z,17.60
2022-12-12T06:07:57.925Z,16.80
2022-12-12T06:10:27.471Z,17.23
2022-12-12T06:12:56.875Z,16.90
2022-12-12T06:15:26.261Z,17.67
2022-12-12T06:17:58.095Z,15.20
2022-12-12T06:20:30.035Z,16.62
2022-12-12T06:22:59.436Z,16.52
2022-12-12T06:25:29.465Z,17.53
2022-12-12T06:27:59.332Z,22.17
2022-12-12T06:30:29.010Z,22.73
2022-12-12T06:32:58.450Z,20.20
2022-12-12T06:35:28.441Z,17.93
2022-12-12T06:37:58.151Z,18.67
2022-12-12T06:40:27.443Z,18.57
2022-12-12T06:42:57.064Z,18.40
2022-12-12T06:45:26.479Z,17.97
2022-12-12T06:47:56.181Z,18.70
2022-12-12T06:50:25.728Z,17.90
2022-12-12T06:52:55.134Z,18.37
2022-12-12T06:55:24.585Z,17.93
2022-12-12T06:57:54.066Z,17.60
2022-12-12T07:00:23.829Z,17.07
2022-12-12T07:02:53.322Z,15.47
2022-12-12T07:05:23.692Z,16.87
2022-12-12T07:07:53.100Z,18.40
2022-12-12T07:10:22.645Z,17.60
2022-12-12T07:12:57.219Z,16.20
2022-12-12T07:15:27.273Z,23.63
2022-12-12T07:17:58.290Z,21.30
2022-12-12T07:20:27.987Z,19.83
2022-12-12T07:22:59.520Z,19.77
2022-12-12T07:25:29.170Z,19.17
2022-12-12T07:27:58.646Z,18.60
2022-12-12T07:30:28.147Z,17.60
2022-12-12T07:32:57.879Z,16.30
2022-12-12T07:35:28.387Z,16.97
2022-12-12T07:37:58.097Z,16.57
2022-12-12T07:40:31.686Z,16.60
2022-12-12T07:43:02.530Z,16.37
2022-12-12T07:45:32.341Z,16.17
2022-12-12T07:48:01.795Z,16.20
2022-12-12T07:50:31.353Z,16.37
2022-12-12T07:53:00.839Z,16.50
2022-12-12T07:55:30.401Z,16.40
2022-12-12T07:58:12.670Z,15.83
2022-12-12T08:00:42.670Z,17.27
2022-12-12T08:03:12.239Z,16.97
2022-12-12T08:05:42.446Z,17.03
2022-12-12T08:08:12.143Z,16.00
2022-12-12T08:10:45.115Z,16.23
2022-12-12T08:13:14.555Z,15.97
2022-12-12T08:15:44.229Z,14.70
2022-12-12T08:18:14.171Z,14.93
2022-12-12T08:20:43.826Z,14.33
2022-12-12T08:23:14.048Z,15.57
2022-12-12T08:25:46.175Z,14.80
2022-12-12T08:28:15.627Z,14.78
2022-12-12T08:30:50.360Z,15.43
2022-12-12T08:33:19.878Z,14.97
2022-12-12T08:35:50.260Z,13.87
2022-12-12T08:38:20.033Z,14.70
2022-12-12T08:40:53.243Z,14.97
2022-12-12T08:43:22.607Z,13.27
2022-12-12T08:45:52.405Z,13.03
2022-12-12T08:48:21.830Z,14.15
2022-12-12T08:50:53.064Z,13.97
2022-12-12T08:53:22.528Z,13.57
2022-12-12T08:55:52.307Z,12.37
2022-12-12T08:58:22.945Z,12.73
2022-12-12T09:00:53.059Z,14.00
2022-12-12T09:03:28.874Z,13.77
2022-12-12T09:05:58.980Z,13.83
2022-12-12T09:08:28.454Z,12.73
2022-12-12T09:10:58.627Z,13.10
2022-12-12T09:13:28.380Z,14.00
2022-12-12T09:16:00.046Z,13.50
2022-12-12T09:18:34.031Z,12.87
2022-12-12T09:21:03.699Z,13.27
2022-12-12T09:23:34.054Z,12.73
2022-12-12T09:26:07.505Z,12.43
2022-12-12T09:28:36.969Z,12.63
2022-12-12T09:31:09.036Z,12.07
2022-12-12T09:33:39.826Z,11.60
2022-12-12T09:36:11.469Z,11.47
2022-12-12T09:38:41.070Z,12.75
2022-12-12T09:41:17.429Z,11.00
2022-12-12T09:43:54.913Z,11.67
2022-12-12T09:46:37.023Z,11.47
2022-12-12T09:49:13.935Z,10.85
2022-12-12T09:51:47.747Z,11.47
2022-12-12T09:54:20.815Z,11.30
2022-12-12T09:57:06.412Z,10.83
2022-12-12T09:59:44.547Z,11.37
2022-12-12T10:02:50.753Z,11.23
2022-12-12T10:05:34.655Z,10.97
2022-12-12T10:08:14.275Z,10.73
2022-12-12T10:10:48.191Z,11.43
2022-12-12T10:13:21.475Z,10.63
2022-12-12T10:15:54.793Z,10.70
2022-12-12T10:18:31.315Z,10.37
2022-12-12T10:21:05.341Z,9.87
2022-12-12T10:23:40.324Z,10.10
2022-12-12T10:26:15.337Z,9.50
2022-12-12T10:28:48.190Z,10.10
2022-12-12T10:31:32.782Z,10.20
2022-12-12T10:34:26.226Z,9.43
2022-12-12T10:37:08.646Z,10.20
2022-12-12T10:42:22.433Z,9.90
2022-12-12T10:45:18.358Z,9.07
2022-12-12T10:47:47.830Z,10.47
2022-12-12T10:50:27.115Z,9.90
2022-12-12T10:52:57.565Z,10.13
2022-12-12T10:55:41.065Z,10.30
2022-12-12T10:58:10.588Z,8.73
2022-12-12T11:00:43.270Z,10.20
2022-12-12T11:03:28.491Z,9.70
2022-12-12T11:06:25.344Z,9.33
2022-12-12T11:09:06.852Z,9.27
2022-12-12T11:11:37.114Z,10.17
2022-12-12T11:14:28.725Z,9.33
2022-12-12T11:17:46.422Z,9.53
2022-12-12T11:20:23.079Z,9.30
2022-12-12T11:23:21.207Z,8.50
2022-12-12T11:26:04.636Z,9.07
2022-12-12T11:28:38.511Z,8.93
2022-12-12T11:31:16.965Z,10.07
2022-12-12T11:33:52.781Z,9.83
2022-12-12T11:36:46.400Z,9.20
2022-12-12T11:39:47.608Z,9.67
2022-12-12T11:42:38.615Z,9.17
2022-12-12T11:45:27.335Z,9.10
2022-12-12T11:48:01.375Z,9.25
2022-12-12T11:50:45.326Z,9.25
2022-12-12T11:53:14.767Z,9.43
2022-12-12T11:56:05.399Z,9.57
2022-12-12T11:58:46.219Z,8.70
2022-12-12T12:01:31.177Z,9.20
2022-12-12T12:04:24.943Z,9.30
2022-12-12T12:07:10.512Z,9.30
2022-12-12T12:09:49.487Z,10.33
2022-12-12T12:12:25.039Z,9.60
2022-12-12T12:15:20.878Z,10.40
2022-12-12T12:18:09.564Z,11.20
2022-12-12T12:20:54.540Z,11.10
2022-12-12T12:23:41.213Z,11.50
2022-12-12T12:26:18.371Z,11.00
2022-12-12T12:29:18.796Z,11.30
2022-12-12T12:32:08.257Z,10.60
2022-12-12T12:34:52.174Z,9.67
2022-12-12T12:37:37.551Z,11.27
2022-12-12T12:40:19.489Z,10.47
2022-12-12T12:43:09.305Z,11.18
2022-12-12T12:45:45.382Z,10.73
2022-12-12T12:48:23.081Z,11.43
2022-12-12T12:51:03.092Z,10.63
2022-12-12T12:53:43.892Z,10.53
2022-12-12T12:56:26.200Z,10.73
2022-12-12T12:59:14.363Z,10.60
2022-12-12T13:02:01.776Z,11.70
2022-12-12T13:04:41.270Z,11.30
2022-12-12T13:07:21.565Z,10.83
2022-12-12T13:33:05.843Z,13.07
2022-12-12T13:35:46.697Z,12.87
2022-12-12T13:38:27.154Z,14.40
2022-12-12T13:40:59.220Z,13.23
2022-12-12T13:43:45.660Z,14.60
2022-12-12T13:46:42.154Z,15.17
2022-12-12T13:49:39.275Z,14.23
2022-12-12T13:52:27.208Z,14.50
2022-12-12T13:55:20.839Z,14.57
2022-12-12T13:58:27.084Z,16.70
2022-12-12T14:01:28.650Z,16.83
2022-12-12T14:04:00.434Z,13.97
2022-12-12T14:06:31.437Z,14.07
2022-12-12T14:09:01.216Z,14.90
2022-12-12T14:11:36.067Z,16.80
2022-12-12T14:14:21.254Z,16.90
2022-12-12T14:16:56.067Z,14.53
2022-12-12T14:19:41.396Z,14.87
2022-12-12T14:22:27.644Z,15.43
2022-12-12T14:25:06.672Z,14.20
2022-12-12T14:28:12.052Z,14.57
2022-12-12T14:30:49.147Z,14.63
2022-12-12T14:34:02.898Z,14.63
2022-12-12T14:36:53.438Z,14.90
2022-12-12T14:39:49.175Z,16.90
2022-12-12T14:43:19.035Z,17.77
2022-12-12T14:45:32.883Z,18.47
2022-12-12T14:48:16.288Z,17.83
2022-12-12T14:50:50.116Z,18.00
2022-12-12T14:53:23.828Z,16.77
2022-12-12T14:56:00.175Z,15.67
2022-12-12T14:58:37.616Z,17.63
2022-12-12T15:01:10.653Z,21.67
2022-12-12T15:03:45.671Z,20.67
2022-12-12T15:06:34.087Z,27.27
2022-12-12T15:09:29.565Z,24.33
2022-12-12T15:12:16.478Z,19.40
2022-12-12T15:14:55.633Z,16.40
2022-12-12T15:17:29.081Z,15.83
2022-12-12T15:20:00.976Z,16.80
2022-12-12T15:22:32.959Z,15.53
2022-12-12T15:25:05.500Z,16.12
2022-12-12T15:27:48.121Z,15.57
2022-12-12T15:30:32.242Z,15.13
2022-12-12T15:33:07.072Z,15.50
2022-12-12T15:35:36.867Z,15.95
2022-12-12T15:38:12.544Z,15.43
2022-12-12T15:40:50.484Z,15.83
2022-12-12T15:43:23.079Z,16.83
2022-12-12T15:45:54.834Z,15.15
2022-12-12T15:48:25.473Z,13.03
2022-12-12T15:50:58.404Z,11.90
2022-12-12T15:53:30.978Z,11.47
2022-12-12T15:56:05.087Z,11.43
2022-12-12T15:58:38.310Z,11.63
2022-12-12T16:01:20.389Z,11.57
2022-12-12T16:03:58.801Z,14.30
2022-12-12T16:06:31.382Z,12.07
2022-12-12T16:09:08.330Z,11.60
2022-12-12T16:11:45.192Z,10.43
2022-12-12T16:14:41.383Z,10.87
2022-12-12T16:17:17.461Z,11.03
2022-12-12T16:19:54.885Z,10.63
2022-12-12T16:22:35.167Z,10.47
2022-12-12T16:25:18.350Z,10.60
2022-12-12T16:27:51.709Z,10.73
2022-12-12T16:30:21.207Z,10.60
2022-12-12T16:32:50.783Z,11.07
2022-12-12T16:35:23.269Z,10.47
2022-12-12T16:37:52.922Z,9.75
2022-12-12T16:40:23.454Z,11.40
2022-12-12T16:43:07.786Z,11.60
2022-12-12T16:45:42.157Z,11.87
2022-12-12T16:48:16.606Z,10.40
2022-12-12T16:50:47.173Z,10.87
2022-12-12T16:53:22.936Z,9.00
2022-12-12T16:55:54.208Z,9.87
2022-12-12T16:58:24.552Z,9.90
2022-12-12T17:00:55.545Z,9.53
2022-12-12T17:03:26.456Z,10.70
2022-12-12T17:05:56.115Z,10.33
2022-12-12T17:08:26.211Z,9.90
2022-12-12T17:11:10.258Z,10.83
2022-12-12T17:13:46.362Z,11.47
2022-12-12T17:16:16.524Z,10.50
2022-12-12T17:18:46.207Z,11.03
2022-12-12T17:21:21.719Z,12.47
2022-12-12T17:23:51.165Z,11.80
2022-12-12T17:26:20.596Z,11.87
2022-12-12T17:29:09.079Z,13.97
2022-12-12T17:31:44.837Z,11.70
2022-12-12T17:34:16.358Z,10.33
2022-12-12T17:36:46.180Z,9.63
2022-12-12T17:39:15.533Z,10.03
2022-12-12T17:41:45.006Z,11.27
2022-12-12T17:44:15.054Z,12.07
2022-12-12T17:46:45.655Z,11.87
2022-12-12T17:49:21.903Z,11.30
2022-12-12T17:51:52.992Z,12.07
2022-12-12T17:54:22.726Z,12.07
2022-12-12T17:56:52.799Z,13.43
2022-12-12T17:59:22.691Z,14.90
2022-12-12T18:01:53.523Z,15.10
2022-12-12T18:04:27.922Z,14.33
2022-12-12T18:06:58.009Z,15.57
2022-12-12T18:09:27.941Z,13.13
2022-12-12T18:11:58.017Z,12.47
2022-12-12T18:14:28.201Z,11.17
2022-12-12T18:16:57.684Z,11.10
2022-12-12T18:19:29.545Z,11.07
2022-12-12T18:22:01.246Z,11.10
2022-12-12T18:24:32.624Z,9.87
2022-12-12T18:27:02.953Z,13.53
2022-12-12T18:29:32.758Z,11.70
2022-12-12T18:32:04.409Z,11.90
2022-12-12T18:34:34.065Z,13.83
2022-12-12T18:37:06.247Z,11.40
2022-12-12T18:39:36.001Z,10.27
2022-12-12T18:42:07.050Z,10.17
2022-12-12T18:44:36.553Z,11.17
2022-12-12T18:47:06.290Z,10.67
2022-12-12T18:49:36.318Z,10.67
2022-12-12T18:52:06.736Z,11.83
2022-12-12T18:54:36.846Z,12.50
2022-12-12T18:57:07.000Z,12.40
2022-12-12T18:59:38.016Z,12.37
2022-12-12T19:02:08.459Z,12.00
2022-12-12T19:04:57.752Z,12.43
2022-12-12T19:07:27.828Z,11.67
2022-12-12T19:09:57.867Z,11.00
2022-12-12T19:12:30.457Z,11.57
2022-12-12T19:15:16.388Z,11.00
2022-12-12T19:17:49.589Z,12.03
2022-12-12T19:20:19.285Z,11.83
2022-12-12T19:22:49.190Z,11.57
2022-12-12T19:25:20.747Z,12.23
2022-12-12T19:27:50.216Z,13.07
2022-12-12T19:30:21.932Z,13.38
2022-12-12T19:33:10.248Z,12.00
2022-12-12T19:35:45.688Z,13.67
2022-12-12T19:38:33.956Z,13.53
2022-12-12T19:41:04.547Z,13.63
2022-12-12T19:43:34.416Z,13.27
2022-12-12T19:46:08.734Z,13.33
2022-12-12T19:48:40.020Z,13.17
2022-12-12T19:51:11.899Z,14.23
2022-12-12T19:56:59.111Z,13.93
2022-12-12T19:59:28.538Z,13.87
2022-12-12T20:02:00.099Z,12.90
2022-12-12T20:04:30.027Z,14.53
2022-12-12T20:07:18.652Z,15.47
2022-12-12T20:09:50.111Z,15.20
2022-12-12T20:12:44.206Z,15.20
2022-12-12T20:15:20.829Z,15.23
2022-12-12T20:17:50.802Z,16.70
2022-12-12T20:20:20.766Z,17.33
2022-12-12T20:22:50.877Z,16.93
2022-12-12T20:25:20.215Z,17.23
2022-12-12T20:27:49.755Z,17.93
2022-12-12T20:30:20.343Z,17.60
2022-12-12T20:32:49.734Z,16.63
2022-12-12T20:35:19.738Z,16.75
2022-12-12T20:37:49.138Z,16.47
2022-12-12T20:40:18.817Z,16.53
2022-12-12T20:43:06.546Z,17.53
2022-12-12T20:45:38.660Z,17.03
2022-12-12T20:48:08.116Z,15.85
2022-12-12T20:50:37.595Z,16.37
2022-12-12T20:53:06.985Z,16.23
2022-12-12T20:55:42.672Z,17.07
2022-12-12T20:58:12.102Z,17.27
2022-12-12T21:00:41.470Z,17.05
2022-12-12T21:03:11.048Z,16.23
2022-12-12T21:05:43.587Z,14.90
2022-12-12T21:08:13.122Z,15.07
2022-12-12T21:10:42.667Z,15.37
2022-12-12T21:13:12.288Z,15.57
2022-12-12T21:15:41.839Z,14.87
2022-12-12T21:18:11.287Z,14.80
2022-12-12T21:20:58.799Z,15.17
2022-12-12T21:23:28.302Z,16.07
2022-12-12T21:25:57.705Z,15.17
2022-12-12T21:28:27.111Z,15.67
2022-12-12T21:30:56.977Z,15.13
2022-12-12T21:33:27.914Z,16.33
2022-12-12T21:36:02.429Z,16.53
2022-12-12T21:38:33.190Z,15.43
2022-12-12T21:41:08.652Z,15.75
2022-12-12T21:43:38.115Z,15.67
2022-12-12T21:46:10.015Z,15.73
2022-12-12T21:48:39.901Z,16.52
2022-12-12T21:51:14.150Z,16.57
2022-12-12T21:53:44.744Z,14.57
2022-12-12T21:56:32.709Z,14.90
2022-12-12T21:59:03.236Z,15.83
2022-12-12T22:01:33.904Z,15.30
2022-12-12T22:04:03.681Z,15.87
2022-12-12T22:06:35.080Z,15.73
2022-12-12T22:09:07.644Z,15.85
2022-12-12T22:14:20.262Z,14.97
2022-12-12T22:16:50.471Z,14.75
2022-12-12T22:19:19.866Z,15.13
2022-12-12T22:21:49.436Z,16.13
2022-12-12T22:24:19.639Z,16.77
2022-12-12T22:26:50.077Z,16.53
2022-12-12T22:29:21.032Z,17.40
2022-12-12T22:31:51.888Z,16.30
2022-12-12T22:34:23.360Z,16.60
2022-12-12T22:36:53.947Z,16.45
2022-12-12T22:39:25.445Z,16.00
2022-12-12T22:41:57.320Z,14.93
2022-12-12T22:44:26.735Z,16.00
2022-12-12T22:46:56.464Z,15.80
2022-12-12T22:49:27.068Z,16.73
2022-12-12T22:51:57.769Z,16.87
2022-12-12T22:54:27.268Z,15.97
2022-12-12T22:56:56.607Z,15.10
2022-12-12T22:59:26.601Z,15.77
2022-12-12T23:01:56.101Z,14.83
2022-12-12T23:04:25.622Z,14.90
2022-12-12T23:06:55.375Z,15.87
2022-12-12T23:09:25.637Z,14.93
2022-12-12T23:11:55.190Z,15.27
2022-12-12T23:14:26.350Z,15.30
2022-12-12T23:17:00.890Z,15.67
2022-12-12T23:19:30.248Z,14.57
2022-12-12T23:21:59.803Z,13.57
2022-12-12T23:24:29.082Z,12.73
2022-12-12T23:26:58.865Z,13.53
2022-12-12T23:29:30.417Z,13.00
2022-12-12T23:32:12.651Z,14.00
2022-12-12T23:34:41.936Z,12.93
2022-12-12T23:37:11.333Z,13.10
2022-12-12T23:39:40.861Z,12.27
2022-12-12T23:42:10.188Z,13.20
2022-12-12T23:44:39.478Z,12.67
2022-12-12T23:47:08.795Z,13.20
2022-12-12T23:49:38.227Z,12.33
2022-12-12T23:52:07.598Z,13.03
2022-12-12T23:54:37.016Z,12.77
2022-12-12T23:57:06.449Z,13.63
2022-12-12T23:59:35.825Z,13.37
